createdAt,value
2023-01-19T00:01:35.655Z,7.50
2023-01-19T00:03:39.491Z,7.10
2023-01-19T00:05:43.142Z,6.60
2023-01-19T00:07:45.993Z,7.30
2023-01-19T00:09:48.873Z,6.90
2023-01-19T00:11:51.758Z,7.00
2023-01-19T00:13:54.676Z,6.60
2023-01-19T00:15:59.156Z,6.77
2023-01-19T00:18:02.032Z,6.40
2023-01-19T00:20:05.632Z,6.60
2023-01-19T00:22:08.468Z,6.23
2023-01-19T00:24:13.831Z,6.30
2023-01-19T00:26:17.345Z,6.37
2023-01-19T00:28:20.320Z,6.10
2023-01-19T00:30:23.182Z,7.27
2023-01-19T00:32:27.915Z,6.63
2023-01-19T00:34:37.032Z,6.60
2023-01-19T00:36:40.098Z,6.77
2023-01-19T00:38:43.400Z,7.60
2023-01-19T00:40:47.222Z,6.90
2023-01-19T00:42:49.088Z,6.60
2023-01-19T00:44:51.912Z,7.07
2023-01-19T00:46:54.971Z,6.80
2023-01-19T00:49:00.187Z,6.83
2023-01-19T00:51:03.455Z,7.20
2023-01-19T00:53:06.535Z,6.47
2023-01-19T00:55:11.904Z,6.63
2023-01-19T00:57:16.222Z,7.27
2023-01-19T00:59:19.152Z,7.03
2023-01-19T01:01:22.124Z,7.20
2023-01-19T01:03:44.909Z,7.57
2023-01-19T01:05:50.531Z,6.87
2023-01-19T01:07:53.341Z,7.07
2023-01-19T01:09:56.674Z,6.50
2023-01-19T01:12:02.073Z,6.93
2023-01-19T01:14:04.950Z,6.47
2023-01-19T01:16:12.270Z,7.03
2023-01-19T01:18:15.164Z,6.80
2023-01-19T01:20:20.106Z,7.10
2023-01-19T01:22:27.060Z,6.47
2023-01-19T01:24:30.113Z,6.93
2023-01-19T01:26:32.881Z,7.10
2023-01-19T01:28:35.734Z,7.40
2023-01-19T01:30:41.047Z,6.80
2023-01-19T01:32:43.959Z,7.00
2023-01-19T01:34:48.024Z,6.40
2023-01-19T01:36:51.376Z,7.10
2023-01-19T01:38:56.455Z,6.87
2023-01-19T01:40:59.599Z,7.60
2023-01-19T01:43:03.106Z,7.40
2023-01-19T01:45:14.124Z,8.07
2023-01-19T01:47:19.686Z,6.90
2023-01-19T01:49:24.905Z,6.70
2023-01-19T01:51:31.311Z,7.77
2023-01-19T01:53:35.545Z,6.47
2023-01-19T01:55:43.293Z,7.47
2023-01-19T01:57:49.257Z,6.63
2023-01-19T01:59:52.492Z,6.23
2023-01-19T02:02:15.548Z,7.13
2023-01-19T02:04:19.103Z,7.20
2023-01-19T02:06:22.330Z,6.40
2023-01-19T02:08:47.229Z,6.90
2023-01-19T02:11:09.590Z,6.30
2023-01-19T02:13:18.950Z,6.97
2023-01-19T02:15:22.222Z,6.93
2023-01-19T02:17:25.348Z,7.27
2023-01-19T02:19:32.919Z,8.50
2023-01-19T02:21:39.957Z,7.47
2023-01-19T02:23:46.682Z,7.70
2023-01-19T02:25:50.474Z,8.00
2023-01-19T02:27:53.679Z,8.00
2023-01-19T02:29:56.961Z,7.17
2023-01-19T02:32:02.371Z,7.50
2023-01-19T02:34:07.921Z,7.90
2023-01-19T02:36:12.236Z,6.53
2023-01-19T02:38:16.571Z,7.83
2023-01-19T02:40:22.055Z,7.43
2023-01-19T02:42:29.010Z,8.00
2023-01-19T02:44:34.449Z,7.83
2023-01-19T02:46:41.091Z,6.87
2023-01-19T02:48:43.959Z,6.60
2023-01-19T02:50:49.865Z,7.53
2023-01-19T02:52:53.885Z,6.37
2023-01-19T02:55:03.893Z,6.70
2023-01-19T02:57:34.168Z,7.13
2023-01-19T02:59:47.963Z,5.93
2023-01-19T03:02:08.903Z,5.57
2023-01-19T03:04:16.928Z,5.60
2023-01-19T03:06:28.001Z,6.20
2023-01-19T03:08:43.772Z,5.93
2023-01-19T03:10:52.579Z,5.80
2023-01-19T03:13:03.788Z,6.17
2023-01-19T03:15:15.520Z,5.53
2023-01-19T03:17:19.883Z,5.57
2023-01-19T03:19:27.479Z,5.23
2023-01-19T03:21:32.011Z,5.50
2023-01-19T03:23:42.914Z,5.63
2023-01-19T03:25:46.919Z,5.20
2023-01-19T03:27:52.989Z,5.90
2023-01-19T03:30:01.847Z,6.30
2023-01-19T03:32:09.744Z,5.57
2023-01-19T03:34:20.141Z,5.50
2023-01-19T03:36:29.235Z,5.30
2023-01-19T03:38:40.509Z,5.53
2023-01-19T03:40:44.172Z,5.80
2023-01-19T03:42:47.584Z,6.30
2023-01-19T03:44:52.599Z,5.63
2023-01-19T03:46:58.735Z,5.30
2023-01-19T03:49:02.884Z,5.10
2023-01-19T03:51:09.779Z,5.33
2023-01-19T03:53:15.669Z,5.57
2023-01-19T03:55:21.869Z,4.80
2023-01-19T03:57:26.423Z,5.97
2023-01-19T03:59:31.693Z,5.27
2023-01-19T04:01:39.143Z,5.40
2023-01-19T04:03:44.511Z,4.97
2023-01-19T04:05:47.821Z,5.27
2023-01-19T04:07:54.036Z,4.50
2023-01-19T04:10:05.396Z,5.10
2023-01-19T04:12:08.935Z,4.80
2023-01-19T04:14:12.158Z,6.07
2023-01-19T04:16:20.519Z,6.20
2023-01-19T04:18:24.296Z,6.27
2023-01-19T04:20:29.409Z,5.30
2023-01-19T04:22:39.136Z,5.07
2023-01-19T04:24:44.663Z,4.53
2023-01-19T04:26:48.088Z,5.10
2023-01-19T04:28:54.005Z,7.30
2023-01-19T04:30:59.117Z,5.00
2023-01-19T04:33:02.645Z,5.63
2023-01-19T04:35:07.276Z,5.80
2023-01-19T04:37:16.617Z,5.13
2023-01-19T04:39:20.594Z,5.23
2023-01-19T04:41:23.618Z,4.80
2023-01-19T04:43:28.402Z,5.97
2023-01-19T04:45:31.630Z,5.10
2023-01-19T04:47:35.793Z,5.07
2023-01-19T04:49:41.107Z,5.23
2023-01-19T04:51:45.103Z,5.57
2023-01-19T04:53:51.862Z,5.20
2023-01-19T04:55:55.906Z,4.83
2023-01-19T04:58:00.209Z,5.00
2023-01-19T05:00:04.157Z,5.70
2023-01-19T05:02:08.096Z,5.07
2023-01-19T05:04:14.445Z,6.57
2023-01-19T05:06:20.168Z,6.00
2023-01-19T05:08:23.079Z,6.20
2023-01-19T05:10:29.147Z,6.50
2023-01-19T05:12:33.352Z,6.27
2023-01-19T05:14:40.060Z,6.40
2023-01-19T05:16:47.108Z,6.17
2023-01-19T05:18:56.126Z,6.07
2023-01-19T05:21:02.185Z,5.37
2023-01-19T05:23:07.620Z,6.23
2023-01-19T05:25:11.947Z,6.00
2023-01-19T05:27:18.195Z,6.03
2023-01-19T05:29:22.298Z,6.00
2023-01-19T05:31:26.509Z,6.50
2023-01-19T05:33:36.732Z,6.07
2023-01-19T05:35:40.253Z,5.90
2023-01-19T05:37:45.736Z,5.63
2023-01-19T05:39:50.865Z,5.80
2023-01-19T05:41:53.976Z,6.03
2023-01-19T05:43:58.748Z,6.20
2023-01-19T05:46:04.605Z,5.50
2023-01-19T05:48:10.469Z,5.70
2023-01-19T05:50:13.774Z,5.50
2023-01-19T05:52:17.126Z,5.67
2023-01-19T05:54:21.369Z,5.87
2023-01-19T05:56:26.211Z,5.30
2023-01-19T05:58:34.821Z,4.77
2023-01-19T06:00:40.470Z,5.80
2023-01-19T06:02:43.600Z,6.20
2023-01-19T06:04:48.144Z,6.00
2023-01-19T06:06:53.515Z,6.07
2023-01-19T06:08:58.567Z,5.80
2023-01-19T06:11:04.191Z,5.87
2023-01-19T06:13:11.622Z,5.60
2023-01-19T06:15:17.155Z,7.50
2023-01-19T06:17:22.214Z,6.13
2023-01-19T06:19:25.509Z,6.60
2023-01-19T06:21:29.833Z,6.60
2023-01-19T06:23:35.909Z,5.77
2023-01-19T06:25:47.538Z,6.47
2023-01-19T06:27:51.870Z,5.60
2023-01-19T06:29:57.228Z,6.10
2023-01-19T06:32:07.848Z,6.00
2023-01-19T06:34:18.003Z,6.13
2023-01-19T06:36:22.382Z,5.93
2023-01-19T06:38:26.921Z,5.73
2023-01-19T06:40:31.678Z,6.07
2023-01-19T06:42:35.438Z,5.00
2023-01-19T06:44:38.905Z,4.80
2023-01-19T06:46:42.174Z,4.30
2023-01-19T06:48:53.589Z,4.93
2023-01-19T06:50:59.952Z,4.60
2023-01-19T06:53:05.884Z,4.60
2023-01-19T06:55:11.761Z,3.70
2023-01-19T06:57:19.027Z,3.70
2023-01-19T06:59:22.869Z,3.70
2023-01-19T07:01:29.265Z,3.77
2023-01-19T07:03:37.521Z,3.70
2023-01-19T07:05:44.188Z,3.73
2023-01-19T07:07:52.886Z,3.50
2023-01-19T07:09:55.911Z,3.47
2023-01-19T07:12:02.338Z,3.10
2023-01-19T07:14:09.295Z,3.17
2023-01-19T07:16:14.701Z,3.60
2023-01-19T07:18:19.736Z,3.17
2023-01-19T07:20:24.014Z,2.83
2023-01-19T07:22:27.188Z,2.90
2023-01-19T07:24:33.573Z,2.70
2023-01-19T07:26:39.532Z,2.97
2023-01-19T07:28:47.360Z,2.63
2023-01-19T07:30:55.689Z,3.07
2023-01-19T07:33:00.887Z,2.70
2023-01-19T07:35:06.451Z,2.33
2023-01-19T07:37:10.803Z,2.43
2023-01-19T07:39:18.188Z,2.37
2023-01-19T07:41:27.825Z,2.50
2023-01-19T07:43:32.635Z,1.80
2023-01-19T07:45:45.176Z,2.40
2023-01-19T07:47:52.364Z,2.57
2023-01-19T07:49:57.660Z,2.50
2023-01-19T07:52:02.896Z,2.60
2023-01-19T07:54:08.686Z,2.17
2023-01-19T07:56:12.628Z,2.40
2023-01-19T07:58:17.256Z,2.50
2023-01-19T08:00:25.881Z,2.40
2023-01-19T08:02:30.587Z,3.10
2023-01-19T08:04:38.052Z,3.10
2023-01-19T08:06:47.770Z,3.23
2023-01-19T08:08:58.823Z,3.17
2023-01-19T08:11:06.627Z,3.57
2023-01-19T08:13:09.964Z,3.57
2023-01-19T08:15:15.971Z,3.97
2023-01-19T08:17:19.494Z,4.40
2023-01-19T08:19:29.105Z,4.40
2023-01-19T08:21:35.668Z,4.33
2023-01-19T08:23:39.219Z,5.20
2023-01-19T08:25:44.678Z,4.73
2023-01-19T08:27:50.056Z,5.30
2023-01-19T08:29:58.891Z,6.30
2023-01-19T08:32:04.052Z,5.73
2023-01-19T08:34:09.980Z,6.27
2023-01-19T08:36:13.364Z,6.57
2023-01-19T08:38:18.912Z,6.23
2023-01-19T08:40:21.833Z,7.10
2023-01-19T08:42:24.979Z,7.50
2023-01-19T08:44:28.287Z,7.20
2023-01-19T08:46:31.704Z,8.03
2023-01-19T08:48:35.961Z,7.77
2023-01-19T08:50:38.880Z,8.60
2023-01-19T08:52:41.732Z,7.90
2023-01-19T08:54:44.606Z,8.27
2023-01-19T08:56:47.516Z,8.13
2023-01-19T08:59:07.644Z,8.87
2023-01-19T09:01:14.082Z,7.30
2023-01-19T09:03:17.120Z,9.37
2023-01-19T09:05:21.512Z,8.10
2023-01-19T09:07:24.354Z,8.30
2023-01-19T09:09:27.260Z,8.13
2023-01-19T09:11:30.800Z,8.43
2023-01-19T09:13:34.498Z,9.10
2023-01-19T09:15:37.844Z,8.83
2023-01-19T09:17:41.882Z,9.50
2023-01-19T09:19:44.930Z,8.63
2023-01-19T09:21:49.293Z,8.27
2023-01-19T09:23:52.403Z,9.30
2023-01-19T09:25:58.743Z,9.40
2023-01-19T09:28:04.601Z,9.70
2023-01-19T09:30:11.406Z,9.97
2023-01-19T09:32:14.261Z,10.23
2023-01-19T09:34:17.154Z,9.87
2023-01-19T09:36:20.015Z,9.67
2023-01-19T09:38:25.855Z,11.43
2023-01-19T09:40:29.318Z,12.20
2023-01-19T09:42:34.825Z,11.33
2023-01-19T09:44:37.925Z,12.60
2023-01-19T09:46:42.308Z,12.87
2023-01-19T09:48:47.899Z,12.60
2023-01-19T09:50:50.960Z,11.80
2023-01-19T09:53:01.551Z,13.27
2023-01-19T09:55:21.951Z,13.10
2023-01-19T09:57:27.168Z,13.20
2023-01-19T09:59:31.392Z,13.67
2023-01-19T10:01:39.257Z,14.00
2023-01-19T10:03:42.564Z,13.77
2023-01-19T10:05:48.425Z,14.20
2023-01-19T10:08:05.627Z,15.60
2023-01-19T10:10:19.518Z,15.30
2023-01-19T10:12:32.009Z,15.77
2023-01-19T10:14:38.133Z,16.80
2023-01-19T10:16:47.529Z,15.97
2023-01-19T10:18:52.492Z,15.40
2023-01-19T10:21:01.192Z,15.67
2023-01-19T10:23:07.120Z,15.20
2023-01-19T10:25:17.359Z,15.43
2023-01-19T10:27:22.421Z,15.60
2023-01-19T10:29:29.223Z,16.37
2023-01-19T10:31:34.294Z,15.20
2023-01-19T10:33:37.978Z,16.00
2023-01-19T10:35:40.971Z,16.60
2023-01-19T10:37:44.798Z,15.63
2023-01-19T10:39:48.865Z,15.67
2023-01-19T10:41:54.648Z,15.40
2023-01-19T10:44:02.588Z,15.57
2023-01-19T10:46:09.036Z,14.57
2023-01-19T10:48:13.546Z,14.07
2023-01-19T10:50:34.582Z,15.87
2023-01-19T10:52:39.744Z,15.43
2023-01-19T10:54:44.753Z,16.30
2023-01-19T10:56:54.103Z,15.47
2023-01-19T10:58:57.407Z,17.30
2023-01-19T11:01:14.169Z,16.30
2023-01-19T11:03:24.584Z,17.90
2023-01-19T11:05:29.603Z,18.60
2023-01-19T11:07:34.092Z,18.07
2023-01-19T11:09:37.348Z,17.83
2023-01-19T11:11:44.831Z,19.00
2023-01-19T11:14:04.876Z,18.60
2023-01-19T11:16:11.609Z,18.80
2023-01-19T11:18:24.612Z,18.73
2023-01-19T11:20:30.478Z,20.27
2023-01-19T11:22:34.419Z,21.40
2023-01-19T11:24:39.006Z,19.47
2023-01-19T11:26:43.799Z,20.60
2023-01-19T11:28:53.195Z,19.57
2023-01-19T11:30:58.587Z,19.10
2023-01-19T11:33:01.803Z,18.03
2023-01-19T11:35:36.168Z,17.77
2023-01-19T11:37:42.107Z,17.83
2023-01-19T11:39:49.949Z,19.50
2023-01-19T11:41:56.334Z,21.37
2023-01-19T11:44:04.257Z,19.20
2023-01-19T11:46:07.281Z,20.10
2023-01-19T11:48:18.519Z,20.17
2023-01-19T11:50:24.524Z,21.37
2023-01-19T11:52:29.665Z,21.97
2023-01-19T11:54:37.167Z,20.50
2023-01-19T11:56:40.235Z,22.00
2023-01-19T11:58:46.877Z,21.57
2023-01-19T12:00:53.517Z,21.67
2023-01-19T12:03:00.959Z,22.47
2023-01-19T12:05:08.424Z,22.40
2023-01-19T12:07:13.263Z,23.90
2023-01-19T12:09:20.193Z,23.30
2023-01-19T12:11:27.759Z,23.77
2023-01-19T12:13:31.804Z,23.60
2023-01-19T12:15:37.951Z,22.00
2023-01-19T12:17:46.943Z,23.40
2023-01-19T12:19:55.146Z,23.50
2023-01-19T12:22:05.591Z,22.10
2023-01-19T12:24:19.799Z,23.40
2023-01-19T12:26:43.909Z,23.03
2023-01-19T12:28:52.156Z,24.37
2023-01-19T12:30:56.463Z,21.70
2023-01-19T12:33:23.036Z,23.67
2023-01-19T12:35:59.743Z,22.33
2023-01-19T12:38:05.053Z,22.13
2023-01-19T12:40:24.962Z,23.43
2023-01-19T12:42:30.733Z,21.37
2023-01-19T12:44:37.488Z,22.07
2023-01-19T12:46:43.742Z,23.07
2023-01-19T12:48:51.779Z,21.97
2023-01-19T12:51:02.553Z,22.33
2023-01-19T12:53:08.623Z,21.67
2023-01-19T12:55:26.982Z,21.47
2023-01-19T12:57:35.452Z,22.03
2023-01-19T12:59:39.101Z,21.97
2023-01-19T13:01:42.267Z,23.20
2023-01-19T13:03:59.320Z,22.10
2023-01-19T13:06:02.317Z,23.47
2023-01-19T13:08:19.811Z,21.37
2023-01-19T13:10:54.822Z,23.43
2023-01-19T13:13:18.867Z,22.07
2023-01-19T13:15:30.639Z,22.40
2023-01-19T13:17:37.664Z,21.60
2023-01-19T13:19:50.605Z,23.13
2023-01-19T13:21:54.965Z,23.93
2023-01-19T13:24:01.633Z,21.60
2023-01-19T13:26:07.177Z,24.87
2023-01-19T13:28:12.535Z,22.47
2023-01-19T13:30:19.428Z,23.00
2023-01-19T13:32:25.637Z,22.90
2023-01-19T13:34:30.661Z,23.13
2023-01-19T13:36:38.052Z,22.47
2023-01-19T13:38:43.219Z,21.90
2023-01-19T13:40:47.244Z,19.80
2023-01-19T13:42:56.399Z,21.40
2023-01-19T13:45:03.120Z,19.67
2023-01-19T13:47:09.813Z,20.87
2023-01-19T13:49:19.313Z,21.07
2023-01-19T13:51:23.789Z,19.43
2023-01-19T13:53:31.379Z,19.77
2023-01-19T13:55:35.586Z,19.50
2023-01-19T13:57:42.038Z,19.43
2023-01-19T13:59:45.212Z,19.80
2023-01-19T14:01:51.241Z,20.13
2023-01-19T14:03:59.356Z,18.33
2023-01-19T14:06:03.499Z,19.43
2023-01-19T14:08:15.288Z,20.10
2023-01-19T14:10:20.903Z,19.80
2023-01-19T14:12:25.741Z,20.40
2023-01-19T14:14:34.625Z,19.40
2023-01-19T14:16:40.141Z,18.27
2023-01-19T14:18:43.523Z,20.43
2023-01-19T14:20:57.352Z,18.10
2023-01-19T14:23:00.847Z,18.50
2023-01-19T14:25:38.994Z,19.20
2023-01-19T14:27:44.922Z,21.30
2023-01-19T14:29:50.717Z,17.80
2023-01-19T14:32:08.926Z,17.93
2023-01-19T14:34:34.452Z,19.57
2023-01-19T14:36:42.191Z,18.00
2023-01-19T14:38:45.706Z,18.40
2023-01-19T14:40:49.075Z,17.73
2023-01-19T14:42:57.393Z,19.10
2023-01-19T14:45:02.989Z,19.33
2023-01-19T14:47:14.034Z,17.50
2023-01-19T14:49:21.882Z,18.23
2023-01-19T14:51:27.975Z,19.33
2023-01-19T14:53:38.701Z,17.77
2023-01-19T14:55:47.603Z,17.83
2023-01-19T14:57:50.669Z,18.73
2023-01-19T14:59:56.035Z,19.10
2023-01-19T15:02:00.995Z,17.23
2023-01-19T15:04:05.584Z,17.77
2023-01-19T15:06:12.806Z,16.63
2023-01-19T15:08:18.100Z,15.67
2023-01-19T15:10:25.628Z,15.60
2023-01-19T15:12:32.786Z,17.47
2023-01-19T15:14:36.570Z,14.33
2023-01-19T15:16:45.625Z,15.63
2023-01-19T15:18:50.877Z,15.40
2023-01-19T15:20:55.649Z,14.70
2023-01-19T15:23:04.040Z,12.67
2023-01-19T15:25:08.501Z,14.30
2023-01-19T15:27:14.480Z,12.63
2023-01-19T15:29:22.738Z,13.07
2023-01-19T15:31:27.876Z,13.33
2023-01-19T15:33:33.141Z,12.27
2023-01-19T15:35:37.089Z,13.20
2023-01-19T15:37:41.083Z,13.97
2023-01-19T15:39:43.957Z,13.73
2023-01-19T15:41:48.883Z,13.00
2023-01-19T15:43:54.527Z,13.30
2023-01-19T15:46:03.117Z,14.00
2023-01-19T15:48:13.409Z,15.40
2023-01-19T15:50:20.052Z,13.90
2023-01-19T15:52:25.596Z,13.90
2023-01-19T15:54:32.808Z,12.30
2023-01-19T15:56:37.415Z,12.67
2023-01-19T15:58:50.311Z,13.47
2023-01-19T16:01:02.879Z,12.60
2023-01-19T16:03:05.919Z,13.07
2023-01-19T16:05:13.743Z,13.13
2023-01-19T16:07:19.682Z,14.53
2023-01-19T16:09:23.099Z,12.60
2023-01-19T16:11:37.610Z,13.83
2023-01-19T16:13:41.670Z,13.20
2023-01-19T16:15:47.095Z,13.23
2023-01-19T16:17:52.764Z,11.80
2023-01-19T16:19:55.721Z,13.80
2023-01-19T16:21:58.940Z,12.07
2023-01-19T16:24:14.115Z,12.50
2023-01-19T16:26:28.935Z,14.03
2023-01-19T16:28:33.613Z,12.37
2023-01-19T16:30:37.607Z,13.03
2023-01-19T16:32:42.665Z,12.40
2023-01-19T16:34:46.122Z,12.60
2023-01-19T16:36:58.018Z,13.13
2023-01-19T16:39:02.614Z,13.63
2023-01-19T16:41:12.149Z,13.37
2023-01-19T16:43:19.773Z,13.37
2023-01-19T16:45:23.021Z,14.90
2023-01-19T16:47:26.973Z,14.67
2023-01-19T16:49:35.894Z,14.20
2023-01-19T16:51:58.923Z,14.57
2023-01-19T16:54:02.164Z,14.37
2023-01-19T16:56:08.977Z,15.20
2023-01-19T16:58:13.859Z,14.60
2023-01-19T17:00:20.165Z,14.03
2023-01-19T17:02:26.653Z,15.57
2023-01-19T17:04:32.887Z,16.03
2023-01-19T17:06:38.532Z,15.57
2023-01-19T17:08:45.914Z,16.60
2023-01-19T17:10:50.371Z,16.13
2023-01-19T17:12:55.682Z,16.40
2023-01-19T17:15:01.942Z,15.87
2023-01-19T17:17:05.220Z,15.80
2023-01-19T17:19:11.195Z,17.20
2023-01-19T17:21:19.109Z,16.17
2023-01-19T17:23:22.733Z,18.35
2023-01-19T17:25:26.081Z,18.93
2023-01-19T17:27:32.533Z,16.57
2023-01-19T17:29:39.469Z,14.30
2023-01-19T17:31:43.403Z,15.37
2023-01-19T17:33:52.316Z,16.23
2023-01-19T17:35:55.332Z,16.07
2023-01-19T17:38:01.352Z,16.50
2023-01-19T17:40:04.925Z,15.10
2023-01-19T17:42:10.767Z,15.70
2023-01-19T17:44:13.960Z,14.80
2023-01-19T17:46:19.335Z,15.00
2023-01-19T17:48:23.566Z,14.27
2023-01-19T17:50:27.118Z,14.67
2023-01-19T17:52:31.446Z,14.50
2023-01-19T17:54:35.206Z,13.27
2023-01-19T17:56:38.810Z,13.30
2023-01-19T18:02:24.294Z,12.40
2023-01-19T18:04:27.713Z,12.63
2023-01-19T18:06:31.432Z,12.73
2023-01-19T18:08:36.279Z,12.93
2023-01-19T18:10:42.520Z,12.90
2023-01-19T18:12:47.535Z,12.63
2023-01-19T18:14:53.650Z,12.47
2023-01-19T18:16:56.658Z,13.10
2023-01-19T18:19:01.448Z,13.43
2023-01-19T18:21:07.391Z,14.30
2023-01-19T18:23:17.538Z,14.13
2023-01-19T18:25:21.559Z,13.37
2023-01-19T18:27:26.127Z,12.07
2023-01-19T18:29:31.476Z,14.50
2023-01-19T18:31:34.933Z,13.57
2023-01-19T18:33:38.838Z,14.00
2023-01-19T18:35:43.901Z,13.70
2023-01-19T18:37:47.149Z,13.00
2023-01-19T18:39:51.743Z,12.77
2023-01-19T18:41:57.284Z,13.50
2023-01-19T18:44:01.171Z,14.47
2023-01-19T18:46:09.269Z,13.80
2023-01-19T18:48:14.472Z,14.53
2023-01-19T18:50:18.905Z,15.47
2023-01-19T18:52:24.034Z,14.57
2023-01-19T18:54:27.451Z,13.47
2023-01-19T18:56:31.374Z,15.20
2023-01-19T18:58:37.449Z,13.30
2023-01-19T19:00:40.559Z,15.37
2023-01-19T19:02:43.857Z,15.07
2023-01-19T19:04:48.359Z,14.47
2023-01-19T19:06:54.646Z,13.63
2023-01-19T19:09:03.316Z,15.30
2023-01-19T19:11:12.095Z,16.00
2023-01-19T19:13:21.059Z,16.77
2023-01-19T19:15:27.665Z,15.00
2023-01-19T19:17:30.734Z,17.30
2023-01-19T19:19:33.718Z,16.80
2023-01-19T19:21:36.878Z,18.07
2023-01-19T19:23:41.057Z,17.20
2023-01-19T19:25:45.947Z,17.10
2023-01-19T19:27:51.757Z,16.77
2023-01-19T19:29:54.962Z,18.70
2023-01-19T19:31:57.840Z,16.60
2023-01-19T19:34:01.282Z,16.03
2023-01-19T19:36:05.046Z,17.47
2023-01-19T19:38:08.674Z,17.73
2023-01-19T19:40:12.976Z,16.57
2023-01-19T19:42:18.873Z,16.60
2023-01-19T19:44:21.856Z,17.17
2023-01-19T19:46:25.693Z,15.57
2023-01-19T19:48:29.376Z,14.77
2023-01-19T19:50:35.868Z,14.20
2023-01-19T19:52:40.279Z,14.97
2023-01-19T19:54:44.338Z,15.00
2023-01-19T19:56:50.761Z,14.53
2023-01-19T19:58:56.549Z,15.00
2023-01-19T20:01:03.096Z,13.80
2023-01-19T20:03:06.103Z,15.60
2023-01-19T20:05:09.633Z,14.87
2023-01-19T20:07:12.724Z,14.10
2023-01-19T20:09:17.206Z,16.37
2023-01-19T20:11:23.393Z,15.20
2023-01-19T20:13:28.542Z,15.50
2023-01-19T20:15:33.082Z,16.30
2023-01-19T20:17:37.825Z,15.23
2023-01-19T20:19:40.715Z,14.90
2023-01-19T20:21:43.944Z,15.40
2023-01-19T20:23:47.719Z,15.10
2023-01-19T20:25:53.427Z,14.80
2023-01-19T20:28:00.324Z,14.70
2023-01-19T20:30:03.929Z,14.27
2023-01-19T20:32:09.141Z,14.10
2023-01-19T20:34:14.016Z,14.10
2023-01-19T20:36:17.283Z,13.87
2023-01-19T20:38:20.298Z,13.93
2023-01-19T20:40:23.289Z,15.13
2023-01-19T20:42:26.483Z,13.90
2023-01-19T20:44:30.175Z,14.07
2023-01-19T20:46:33.124Z,14.13
2023-01-19T20:48:39.173Z,13.50
2023-01-19T20:50:42.172Z,14.30
2023-01-19T20:52:45.076Z,13.80
2023-01-19T20:54:48.021Z,14.20
2023-01-19T20:56:51.124Z,14.73
2023-01-19T20:58:54.296Z,15.80
2023-01-19T21:00:59.868Z,13.13
2023-01-19T21:03:03.508Z,14.43
2023-01-19T21:05:09.794Z,13.90
2023-01-19T21:11:34.283Z,12.40
2023-01-19T21:13:38.212Z,12.37
2023-01-19T21:15:41.244Z,12.67
2023-01-19T21:17:45.275Z,13.20
2023-01-19T21:19:48.367Z,13.20
2023-01-19T21:21:52.784Z,12.90
2023-01-19T21:23:58.072Z,12.83
2023-01-19T21:26:01.836Z,12.47
2023-01-19T21:28:07.105Z,13.17
2023-01-19T21:30:11.257Z,13.07
2023-01-19T21:32:14.270Z,12.30
2023-01-19T21:34:17.284Z,12.80
2023-01-19T21:36:20.862Z,13.10
2023-01-19T21:38:29.341Z,11.53
2023-01-19T21:40:32.337Z,13.77
2023-01-19T21:42:35.247Z,12.67
2023-01-19T21:44:38.414Z,13.03
2023-01-19T21:46:43.482Z,12.63
2023-01-19T21:48:47.582Z,12.80
2023-01-19T21:50:58.539Z,13.03
2023-01-19T21:53:01.553Z,12.47
2023-01-19T21:55:07.244Z,13.00
2023-01-19T21:57:10.339Z,12.30
2023-01-19T21:59:14.767Z,13.40
2023-01-19T22:01:18.086Z,12.23
2023-01-19T22:03:26.791Z,13.30
2023-01-19T22:05:29.682Z,13.70
2023-01-19T22:07:32.917Z,12.47
2023-01-19T22:09:36.031Z,13.27
2023-01-19T22:11:40.699Z,13.20
2023-01-19T22:13:44.333Z,13.63
2023-01-19T22:15:47.252Z,12.70
2023-01-19T22:17:50.132Z,13.27
2023-01-19T22:19:56.023Z,13.00
2023-01-19T22:21:59.046Z,12.77
2023-01-19T22:24:02.952Z,13.33
2023-01-19T22:26:06.675Z,13.90
2023-01-19T22:28:12.273Z,13.50
2023-01-19T22:30:17.855Z,14.60
2023-01-19T22:32:21.056Z,13.60
2023-01-19T22:34:23.897Z,12.50
2023-01-19T22:36:31.793Z,12.70
2023-01-19T22:38:35.135Z,12.60
2023-01-19T22:40:38.141Z,11.93
2023-01-19T22:42:41.050Z,12.63
2023-01-19T22:44:45.835Z,11.90
2023-01-19T22:46:54.870Z,12.07
2023-01-19T22:48:58.752Z,13.07
2023-01-19T22:51:02.323Z,12.07
2023-01-19T22:53:08.271Z,11.87
2023-01-19T22:55:13.264Z,12.13
2023-01-19T22:57:16.904Z,12.70
2023-01-19T22:59:21.473Z,12.13
2023-01-19T23:01:28.539Z,13.47
2023-01-19T23:03:32.065Z,12.20
2023-01-19T23:05:37.035Z,12.00
2023-01-19T23:07:42.966Z,11.67
2023-01-19T23:09:46.025Z,13.10
2023-01-19T23:11:52.263Z,12.47
2023-01-19T23:13:59.975Z,12.00
2023-01-19T23:16:06.719Z,12.70
2023-01-19T23:18:14.523Z,13.07
2023-01-19T23:20:19.443Z,13.50
2023-01-19T23:22:23.416Z,13.30
2023-01-19T23:24:27.547Z,13.10
2023-01-19T23:26:38.222Z,14.13
2023-01-19T23:28:43.894Z,13.17
2023-01-19T23:30:49.455Z,12.40
2023-01-19T23:32:52.665Z,13.30
2023-01-19T23:35:03.075Z,12.87
2023-01-19T23:37:07.826Z,15.63
2023-01-19T23:39:15.023Z,14.60
2023-01-19T23:41:18.738Z,14.47
2023-01-19T23:43:22.912Z,13.77
2023-01-19T23:45:27.056Z,14.70
2023-01-19T23:47:31.355Z,13.93
2023-01-19T23:49:34.675Z,16.07
2023-01-19T23:51:42.040Z,15.57
2023-01-19T23:53:45.278Z,14.60
2023-01-19T23:55:49.781Z,15.93
2023-01-19T23:57:52.900Z,17.17
2023-01-19T23:59:56.985Z,16.60
